SBOSBO BCN / LEBL
Speedbird OnlineSpeedbird Online BCN / LEBL

Barcelona International Airport
03:31 5.2°C

Location Barcelona, Spain
Latitude: 41.2971
Longitude: 2.07846
Web Airport Website | Wikipedia
Altitude 4 Meter / 12 Feet
Distance 1,144 KM / 711 Miles
from London.
Time Zone UTC +1 hours (Europe/Madrid)
Codes IATA: BCN
ICAO: LEBL
Currency £1 equals EUR 1.14
Runways
RunwayLength (m)Surface
022528Asphalt
06L3352Asphalt
06R2660Asphalt
202528Asphalt
24L2660Asphalt
24R3352Asphalt
Radio
TypeDescriptionFrequency
APPAPP119.1
ATISATIS118.65
CLDCLNC DEL121.8
GNDGND121.65
TWRTWR118.1
Live ATC
METAR LEBL 270200Z 33011KT 9999 FEW038 03/M01 Q1013 NOSIG
TAF TAF LEBL 262300Z 2700/2724 34009KT 9999 SCT030 TX11/2712Z TN01/2706Z PROB30 TEMPO 2706/2711 34015G25KT TEMPO 2713/2721 VRB04KT
Weather As Of 27 Jan 2023 03:31
Description Few clouds
Wind 20 km/h from North-West (330°)
Cloud Cover 20%
Precipitation Rain: none, Snow: none
Sunrise 08:07
Sunset 18:00
Lounges AENA Joan Miro Lounge , Terminal 1
AENA Colomer Lounge , Terminal 1
AENA Pau Casals Lounge, Terminal 1
Rotations During the last 90 days there were
542 flights from LHR
84 flights from LCY
1 flights from JNB
545 flights to LHR
75 flights to LCY
1 flights to ATH
1 flights to BHX
1 flights to EDI



Support Speedbird Online

© 2017-2023 Speedbird Online